createdAt,value
2023-02-17T00:01:33.866Z,7.70
2023-02-17T00:04:01.212Z,7.70
2023-02-17T00:06:29.168Z,7.80
2023-02-17T00:08:56.196Z,7.70
2023-02-17T00:11:23.122Z,7.80
2023-02-17T00:13:49.943Z,7.80
2023-02-17T00:16:18.646Z,7.80
2023-02-17T00:18:45.854Z,7.80
2023-02-17T00:21:13.976Z,7.80
2023-02-17T00:23:40.969Z,7.80
2023-02-17T00:26:08.164Z,7.80
2023-02-17T00:28:35.611Z,7.80
2023-02-17T00:31:10.184Z,7.80
2023-02-17T00:33:37.169Z,7.80
2023-02-17T00:36:08.403Z,7.80
2023-02-17T00:38:35.311Z,7.80
2023-02-17T00:41:02.547Z,7.80
2023-02-17T00:43:29.338Z,7.80
2023-02-17T00:45:56.331Z,7.90
2023-02-17T00:48:23.296Z,7.90
2023-02-17T00:50:50.265Z,7.90
2023-02-17T00:53:17.242Z,7.90
2023-02-17T00:55:44.110Z,7.80
2023-02-17T00:58:11.063Z,7.80
2023-02-17T01:00:37.905Z,7.90
2023-02-17T01:03:04.767Z,7.90
2023-02-17T01:05:31.674Z,7.90
2023-02-17T01:07:58.527Z,7.90
2023-02-17T01:10:25.446Z,7.90
2023-02-17T01:12:52.269Z,7.90
2023-02-17T01:15:19.127Z,8.00
2023-02-17T01:17:45.908Z,8.10
2023-02-17T01:20:12.800Z,8.30
2023-02-17T01:22:40.098Z,8.40
2023-02-17T01:25:07.239Z,8.60
2023-02-17T01:34:55.995Z,9.00
2023-02-17T01:37:22.820Z,9.20
2023-02-17T01:39:49.636Z,9.20
2023-02-17T01:42:17.258Z,9.20
2023-02-17T01:45:03.943Z,9.20
2023-02-17T01:47:30.766Z,9.20
2023-02-17T01:49:57.584Z,9.30
2023-02-17T01:52:25.873Z,9.40
2023-02-17T01:54:55.268Z,9.40
2023-02-17T01:57:23.916Z,9.40
2023-02-17T01:59:51.318Z,9.30
2023-02-17T02:02:18.446Z,9.40
2023-02-17T02:04:46.955Z,9.40
2023-02-17T02:07:19.108Z,9.40
2023-02-17T02:09:52.453Z,9.50
2023-02-17T02:14:46.817Z,9.40
2023-02-17T02:17:32.383Z,9.50
2023-02-17T02:19:59.185Z,9.70
2023-02-17T02:22:44.362Z,9.80
2023-02-17T02:25:11.154Z,9.90
2023-02-17T02:27:40.922Z,10.00
2023-02-17T02:30:43.385Z,10.10
2023-02-17T02:33:12.922Z,10.10
2023-02-17T02:35:42.797Z,10.10
2023-02-17T02:38:12.709Z,10.10
2023-02-17T02:40:42.979Z,10.10
2023-02-17T02:43:10.035Z,10.10
2023-02-17T02:45:36.944Z,10.10
2023-02-17T02:48:03.879Z,10.20
2023-02-17T02:50:30.652Z,10.20
2023-02-17T02:53:16.206Z,10.30
2023-02-17T02:55:48.959Z,10.40
2023-02-17T02:58:18.992Z,10.50
2023-02-17T03:01:14.325Z,10.50
2023-02-17T03:04:05.198Z,10.50
2023-02-17T03:06:36.593Z,10.60
2023-02-17T03:09:06.784Z,10.60
2023-02-17T03:11:33.586Z,10.70
2023-02-17T03:14:01.586Z,10.70
2023-02-17T03:16:28.733Z,10.80
2023-02-17T03:18:55.543Z,10.70
2023-02-17T03:21:22.351Z,10.70
2023-02-17T03:23:49.163Z,10.60
2023-02-17T03:26:15.958Z,10.60
2023-02-17T03:28:42.765Z,10.60
2023-02-17T03:31:09.558Z,10.60
2023-02-17T03:33:36.373Z,10.60
2023-02-17T03:36:03.293Z,10.60
2023-02-17T03:38:30.174Z,10.60
2023-02-17T03:40:56.971Z,10.70
2023-02-17T03:43:23.813Z,10.70
2023-02-17T03:45:50.701Z,10.70
2023-02-17T03:48:17.488Z,10.70
2023-02-17T03:50:44.305Z,10.70
2023-02-17T03:53:11.635Z,10.70
2023-02-17T03:55:38.436Z,10.70
2023-02-17T03:58:05.400Z,10.60
2023-02-17T04:00:32.186Z,10.60
2023-02-17T04:02:58.994Z,10.60
2023-02-17T04:05:25.820Z,10.50
2023-02-17T04:07:52.884Z,10.50
2023-02-17T04:10:19.692Z,10.50
2023-02-17T04:12:46.525Z,10.50
2023-02-17T04:15:13.385Z,10.60
2023-02-17T04:17:40.184Z,10.60
2023-02-17T04:20:07.586Z,10.60
2023-02-17T04:22:34.385Z,10.70
2023-02-17T04:25:01.182Z,10.70
2023-02-17T04:27:27.965Z,10.80
2023-02-17T04:29:54.752Z,10.90
2023-02-17T04:32:21.573Z,11.00
2023-02-17T04:34:48.351Z,11.10
2023-02-17T04:37:15.176Z,11.20
2023-02-17T04:39:41.978Z,11.40
2023-02-17T04:42:08.816Z,11.60
2023-02-17T04:44:35.609Z,11.80
2023-02-17T04:47:02.379Z,11.90
2023-02-17T04:49:29.281Z,12.00
2023-02-17T04:51:56.058Z,12.10
2023-02-17T04:54:22.951Z,12.20
2023-02-17T04:56:49.767Z,12.20
2023-02-17T04:59:16.553Z,12.20
2023-02-17T05:01:43.358Z,12.20
2023-02-17T05:04:10.394Z,12.10
2023-02-17T05:06:37.206Z,12.10
2023-02-17T05:09:04.092Z,12.20
2023-02-17T05:11:31.624Z,12.10
2023-02-17T05:13:58.435Z,12.10
2023-02-17T05:16:25.322Z,12.30
2023-02-17T05:18:52.138Z,12.40
2023-02-17T05:21:18.923Z,12.40
2023-02-17T05:23:45.726Z,12.50
2023-02-17T05:26:12.708Z,12.50
2023-02-17T05:28:39.549Z,12.70
2023-02-17T05:31:06.857Z,12.60
2023-02-17T05:33:33.782Z,12.60
2023-02-17T05:36:08.380Z,12.60
2023-02-17T05:38:35.655Z,12.60
2023-02-17T05:41:02.669Z,12.60
2023-02-17T05:43:29.538Z,12.60
2023-02-17T05:45:56.360Z,12.60
2023-02-17T05:48:23.206Z,12.50
2023-02-17T05:50:50.041Z,12.40
2023-02-17T05:53:16.858Z,12.40
2023-02-17T05:55:43.607Z,12.30
2023-02-17T05:58:10.456Z,12.20
2023-02-17T06:00:37.276Z,12.20
2023-02-17T06:03:04.288Z,12.10
2023-02-17T06:05:31.219Z,12.00
2023-02-17T06:07:58.122Z,11.90
2023-02-17T06:10:25.193Z,11.70
2023-02-17T06:12:52.067Z,11.70
2023-02-17T06:15:19.027Z,11.60
2023-02-17T06:17:45.836Z,11.60
2023-02-17T06:20:12.976Z,11.50
2023-02-17T06:22:39.774Z,11.40
2023-02-17T06:25:06.758Z,11.40
2023-02-17T06:27:33.646Z,11.30
2023-02-17T06:30:00.444Z,11.30
2023-02-17T06:32:27.549Z,11.30
2023-02-17T06:34:54.394Z,11.30
2023-02-17T06:37:21.254Z,11.20
2023-02-17T06:39:48.105Z,11.20
2023-02-17T06:42:14.925Z,11.10
2023-02-17T06:44:41.749Z,11.10
2023-02-17T06:47:08.582Z,11.00
2023-02-17T06:49:35.394Z,10.90
2023-02-17T06:52:02.222Z,10.80
2023-02-17T06:54:29.261Z,10.70
2023-02-17T06:56:56.090Z,10.60
2023-02-17T06:59:22.965Z,10.60
2023-02-17T07:01:50.653Z,10.60
2023-02-17T07:04:17.556Z,10.50
2023-02-17T07:06:44.338Z,10.50
2023-02-17T07:09:13.861Z,10.40
2023-02-17T07:11:41.992Z,10.40
2023-02-17T07:14:08.890Z,10.40
2023-02-17T07:16:35.766Z,10.30
2023-02-17T07:19:02.605Z,10.20
2023-02-17T07:21:29.415Z,10.20
2023-02-17T07:23:56.316Z,10.20
2023-02-17T07:26:23.102Z,10.10
2023-02-17T07:28:49.941Z,10.10
2023-02-17T07:31:17.478Z,10.00
2023-02-17T07:33:45.756Z,9.90
2023-02-17T07:38:40.241Z,9.80
2023-02-17T07:41:07.609Z,9.80
2023-02-17T07:43:34.524Z,9.70
2023-02-17T07:46:01.468Z,9.70
2023-02-17T07:48:28.274Z,9.60
2023-02-17T07:50:55.194Z,9.50
2023-02-17T07:53:22.048Z,9.40
2023-02-17T07:55:48.830Z,9.40
2023-02-17T07:58:15.607Z,9.40
2023-02-17T08:00:42.452Z,9.30
2023-02-17T08:03:10.823Z,9.20
2023-02-17T08:05:38.879Z,9.10
2023-02-17T08:08:24.393Z,9.00
2023-02-17T08:11:09.964Z,9.00
2023-02-17T08:13:36.812Z,8.90
2023-02-17T08:16:03.920Z,8.80
2023-02-17T08:18:36.256Z,8.80
2023-02-17T08:21:03.870Z,8.80
2023-02-17T08:23:30.833Z,8.80
2023-02-17T08:36:42.063Z,8.90
2023-02-17T08:41:45.136Z,8.80
2023-02-17T08:49:32.091Z,8.80
2023-02-17T08:51:59.832Z,8.70
2023-02-17T08:57:02.566Z,8.70
2023-02-17T09:07:32.446Z,8.70
2023-02-17T09:10:02.313Z,9.10
2023-02-17T09:12:30.916Z,9.10
2023-02-17T09:14:58.069Z,9.00
2023-02-17T09:17:25.280Z,9.20
2023-02-17T09:19:52.464Z,9.40
2023-02-17T09:22:31.651Z,9.60
2023-02-17T09:24:59.553Z,9.80
2023-02-17T09:27:26.644Z,10.10
2023-02-17T09:29:53.821Z,10.00
2023-02-17T09:32:22.409Z,10.10
2023-02-17T09:37:36.866Z,10.30
2023-02-17T09:43:34.832Z,10.20
2023-02-17T09:46:30.387Z,10.30
2023-02-17T09:51:46.099Z,10.20
2023-02-17T09:54:12.970Z,9.90
2023-02-17T09:56:45.755Z,10.00
2023-02-17T09:59:19.710Z,10.10
2023-02-17T10:02:06.954Z,10.10
2023-02-17T10:04:37.017Z,10.00
2023-02-17T10:07:29.477Z,10.20
2023-02-17T10:10:02.772Z,10.40
2023-02-17T10:15:22.042Z,10.50
2023-02-17T10:18:07.886Z,10.50
2023-02-17T10:20:35.084Z,9.80
2023-02-17T10:23:16.331Z,9.30
2023-02-17T10:25:52.334Z,9.00
2023-02-17T10:28:24.202Z,8.80
2023-02-17T10:31:00.425Z,8.70
2023-02-17T10:39:17.329Z,8.50
2023-02-17T10:41:46.231Z,8.50
2023-02-17T10:44:16.811Z,8.50
2023-02-17T10:46:44.609Z,8.50
2023-02-17T10:49:18.761Z,8.60
2023-02-17T10:51:45.935Z,8.60
2023-02-17T10:54:25.641Z,8.60
2023-02-17T10:56:54.863Z,8.60
2023-02-17T10:59:28.109Z,8.70
2023-02-17T11:02:14.379Z,8.70
2023-02-17T11:04:42.756Z,8.70
2023-02-17T11:07:14.186Z,8.70
2023-02-17T11:09:45.700Z,8.70
2023-02-17T11:12:35.846Z,8.70
2023-02-17T11:15:21.108Z,8.70
2023-02-17T11:17:48.126Z,8.80
2023-02-17T11:20:15.492Z,8.80
2023-02-17T11:25:54.762Z,8.90
2023-02-17T11:28:29.216Z,8.90
2023-02-17T11:30:58.397Z,9.00
2023-02-17T11:33:45.160Z,9.10
2023-02-17T11:36:21.691Z,9.40
2023-02-17T11:39:02.224Z,9.80
2023-02-17T11:41:38.655Z,10.50
2023-02-17T11:44:09.704Z,11.00
2023-02-17T11:46:41.092Z,11.30
2023-02-17T11:54:37.408Z,11.40
2023-02-17T11:57:17.550Z,11.00
2023-02-17T11:59:47.578Z,10.90
2023-02-17T12:02:14.927Z,11.20
2023-02-17T12:23:58.646Z,12.30
2023-02-17T12:26:34.988Z,12.20
2023-02-17T12:56:51.332Z,11.70
2023-02-17T13:00:12.876Z,11.60
2023-02-17T13:03:00.706Z,11.60
2023-02-17T13:11:41.594Z,11.60
2023-02-17T13:14:17.621Z,11.60
2023-02-17T13:16:59.949Z,11.40
2023-02-17T13:19:34.368Z,11.30
2023-02-17T13:22:27.463Z,11.10
2023-02-17T13:24:56.839Z,11.20
2023-02-17T13:27:58.523Z,11.20
2023-02-17T13:36:29.780Z,12.10
2023-02-17T13:42:37.680Z,12.00
2023-02-17T13:45:37.533Z,11.90
2023-02-17T13:48:20.042Z,11.80
2023-02-17T13:50:48.953Z,11.80
2023-02-17T14:01:18.078Z,12.20
2023-02-17T14:04:03.982Z,11.90
2023-02-17T14:06:33.663Z,11.60
2023-02-17T14:12:32.277Z,10.90
2023-02-17T14:49:42.686Z,9.80
2023-02-17T14:52:33.776Z,9.80
2023-02-17T14:55:00.643Z,9.70
2023-02-17T14:59:57.853Z,9.70
2023-02-17T15:02:25.114Z,9.80
2023-02-17T15:04:51.978Z,9.70
2023-02-17T15:07:19.502Z,9.70
2023-02-17T15:09:46.857Z,9.70
2023-02-17T15:12:18.032Z,9.70
2023-02-17T15:14:47.057Z,9.60
2023-02-17T15:22:14.993Z,9.40
2023-02-17T15:24:41.789Z,9.30
2023-02-17T15:35:21.040Z,9.10
2023-02-17T15:40:30.937Z,9.10
2023-02-17T15:43:01.598Z,9.00
2023-02-17T17:01:51.408Z,8.20
2023-02-17T17:36:36.534Z,8.00
2023-02-17T17:39:06.916Z,8.00
2023-02-17T17:52:21.943Z,8.00
2023-02-17T17:54:48.922Z,7.90
2023-02-17T17:57:49.673Z,7.90
2023-02-17T18:00:28.580Z,7.90
2023-02-17T18:03:06.282Z,7.80
2023-02-17T18:05:45.084Z,7.80
2023-02-17T18:08:16.938Z,7.90
2023-02-17T18:10:55.529Z,7.90
2023-02-17T18:13:23.930Z,7.90
2023-02-17T18:15:50.856Z,7.80
2023-02-17T18:18:18.480Z,7.80
2023-02-17T18:20:45.310Z,7.80
2023-02-17T18:23:12.045Z,7.80
2023-02-17T18:25:38.834Z,7.70
2023-02-17T18:28:05.662Z,7.70
2023-02-17T18:30:32.528Z,7.70
2023-02-17T18:32:59.356Z,7.70
2023-02-17T18:35:26.198Z,7.70
2023-02-17T18:37:52.981Z,7.60
2023-02-17T18:40:20.487Z,7.50
2023-02-17T18:42:48.348Z,7.60
2023-02-17T18:45:16.020Z,7.50
2023-02-17T18:47:43.180Z,7.60
2023-02-17T18:50:11.571Z,7.60
2023-02-17T18:52:38.740Z,7.50
2023-02-17T18:55:06.025Z,7.50
2023-02-17T18:57:33.583Z,7.50
2023-02-17T19:00:00.390Z,7.50
2023-02-17T19:02:27.314Z,7.50
2023-02-17T19:04:54.261Z,7.50
2023-02-17T19:07:21.733Z,7.50
2023-02-17T19:09:51.650Z,7.60
2023-02-17T19:12:18.802Z,7.50
2023-02-17T19:14:45.924Z,7.60
2023-02-17T19:17:12.941Z,7.70
2023-02-17T19:19:40.352Z,7.70
2023-02-17T19:22:08.797Z,7.80
2023-02-17T19:24:35.997Z,7.80
2023-02-17T19:27:02.815Z,7.90
2023-02-17T19:29:29.645Z,7.90
2023-02-17T19:31:57.555Z,7.90
2023-02-17T19:34:24.793Z,7.90
2023-02-17T19:36:51.606Z,7.80
2023-02-17T19:39:18.551Z,7.80
2023-02-17T19:41:45.462Z,7.80
2023-02-17T19:44:12.313Z,7.70
2023-02-17T19:46:39.477Z,7.70
2023-02-17T19:49:07.070Z,7.70
2023-02-17T19:51:34.249Z,7.60
2023-02-17T19:54:01.548Z,7.50
2023-02-17T19:56:29.470Z,7.50
2023-02-17T19:58:56.411Z,7.50
2023-02-17T20:01:27.434Z,7.50
2023-02-17T20:03:55.270Z,7.50
2023-02-17T20:06:26.644Z,7.50
2023-02-17T20:08:55.399Z,7.50
2023-02-17T20:11:22.469Z,7.60
2023-02-17T20:13:50.024Z,7.50
2023-02-17T20:16:17.366Z,7.50
2023-02-17T20:18:45.854Z,7.50
2023-02-17T20:21:14.218Z,7.40
2023-02-17T20:23:41.263Z,7.40
2023-02-17T20:26:09.646Z,7.40
2023-02-17T20:28:36.796Z,7.30
2023-02-17T20:31:04.239Z,7.30
2023-02-17T20:33:31.678Z,7.30
2023-02-17T20:35:58.836Z,7.30
2023-02-17T20:38:25.921Z,7.30
2023-02-17T20:40:52.718Z,7.30
2023-02-17T20:43:20.759Z,7.30
2023-02-17T20:45:48.785Z,7.30
2023-02-17T20:48:15.786Z,7.30
2023-02-17T20:50:43.044Z,7.30
2023-02-17T20:53:09.931Z,7.30
2023-02-17T20:55:37.138Z,7.30
2023-02-17T20:58:04.159Z,7.30
2023-02-17T21:00:31.069Z,7.30
2023-02-17T21:02:57.960Z,7.30
2023-02-17T21:05:24.870Z,7.30
2023-02-17T21:07:52.298Z,7.30
2023-02-17T21:10:24.614Z,7.30
2023-02-17T21:12:51.424Z,7.30
2023-02-17T21:15:18.278Z,7.20
2023-02-17T21:17:45.542Z,7.10
2023-02-17T21:20:13.830Z,7.10
2023-02-17T21:22:41.439Z,7.10
2023-02-17T21:25:08.867Z,7.20
2023-02-17T21:27:36.463Z,7.10
2023-02-17T21:30:06.214Z,7.20
2023-02-17T21:32:33.167Z,7.10
2023-02-17T21:35:00.246Z,7.20
2023-02-17T21:37:27.187Z,7.20
2023-02-17T21:39:54.014Z,7.30
2023-02-17T21:42:46.012Z,7.30
2023-02-17T21:45:13.005Z,7.30
2023-02-17T21:47:40.051Z,7.30
2023-02-17T21:50:07.280Z,7.30
2023-02-17T21:52:34.053Z,7.30
2023-02-17T21:55:01.738Z,7.20
2023-02-17T21:57:28.511Z,7.20
2023-02-17T21:59:55.485Z,7.10
2023-02-17T22:02:22.418Z,7.10
2023-02-17T22:04:49.321Z,7.10
2023-02-17T22:07:28.462Z,7.00
2023-02-17T22:09:55.276Z,7.10
2023-02-17T22:12:22.056Z,7.10
2023-02-17T22:14:49.093Z,7.00
2023-02-17T22:17:15.936Z,7.10
2023-02-17T22:19:42.828Z,7.00
2023-02-17T22:22:16.041Z,7.10
2023-02-17T22:35:22.123Z,7.10
2023-02-17T22:37:48.944Z,7.20
2023-02-17T22:40:15.858Z,7.10
2023-02-17T22:42:44.741Z,7.10
2023-02-17T22:45:11.568Z,7.00
2023-02-17T22:47:39.986Z,7.00
2023-02-17T23:31:01.144Z,6.40
2023-02-17T23:49:57.351Z,6.30
2023-02-17T23:57:48.518Z,6.40
